sensor_id;sensor_type;location;lat;lon;timestamp;temperature;humidity
21393;DHT22;10857;52.228;21.026;2022-09-02T00:01:19;14.60;99.90
21393;DHT22;10857;52.228;21.026;2022-09-02T00:03:48;14.50;99.90
21393;DHT22;10857;52.228;21.026;2022-09-02T00:06:15;14.50;99.90
21393;DHT22;10857;52.228;21.026;2022-09-02T00:08:43;14.50;99.90
21393;DHT22;10857;52.228;21.026;2022-09-02T00:11:14;14.40;99.90
21393;DHT22;10857;52.228;21.026;2022-09-02T00:13:42;14.40;99.90
21393;DHT22;10857;52.228;21.026;2022-09-02T00:16:10;14.30;99.90
21393;DHT22;10857;52.228;21.026;2022-09-02T00:18:38;14.30;99.90
21393;DHT22;10857;52.228;21.026;2022-09-02T00:21:12;14.30;99.90
21393;DHT22;10857;52.228;21.026;2022-09-02T00:23:41;14.30;99.90
21393;DHT22;10857;52.228;21.026;2022-09-02T00:26:09;14.20;99.90
21393;DHT22;10857;52.228;21.026;2022-09-02T00:28:36;14.10;99.90
21393;DHT22;10857;52.228;21.026;2022-09-02T00:31:03;14.20;99.90
21393;DHT22;10857;52.228;21.026;2022-09-02T00:33:30;14.10;99.90
21393;DHT22;10857;52.228;21.026;2022-09-02T00:35:59;14.10;99.90
21393;DHT22;10857;52.228;21.026;2022-09-02T00:38:27;14.10;99.90
21393;DHT22;10857;52.228;21.026;2022-09-02T00:40:55;14.10;99.90
21393;DHT22;10857;52.228;21.026;2022-09-02T00:43:38;14.00;99.90
21393;DHT22;10857;52.228;21.026;2022-09-02T00:46:06;14.00;99.90
21393;DHT22;10857;52.228;21.026;2022-09-02T00:48:34;14.00;99.90
21393;DHT22;10857;52.228;21.026;2022-09-02T00:51:03;14.00;99.90
21393;DHT22;10857;52.228;21.026;2022-09-02T00:53:32;14.00;99.90
21393;DHT22;10857;52.228;21.026;2022-09-02T00:56:00;14.00;99.90
21393;DHT22;10857;52.228;21.026;2022-09-02T00:58:32;14.00;99.90
21393;DHT22;10857;52.228;21.026;2022-09-02T01:01:00;13.90;99.90
21393;DHT22;10857;52.228;21.026;2022-09-02T01:03:30;13.90;99.90
21393;DHT22;10857;52.228;21.026;2022-09-02T01:05:57;13.90;99.90
21393;DHT22;10857;52.228;21.026;2022-09-02T01:08:27;13.80;99.90
21393;DHT22;10857;52.228;21.026;2022-09-02T01:10:55;13.80;99.90
21393;DHT22;10857;52.228;21.026;2022-09-02T01:13:25;13.80;99.90
21393;DHT22;10857;52.228;21.026;2022-09-02T01:16:00;13.80;99.90
21393;DHT22;10857;52.228;21.026;2022-09-02T01:18:29;13.80;99.90
21393;DHT22;10857;52.228;21.026;2022-09-02T01:20:58;13.80;99.90
21393;DHT22;10857;52.228;21.026;2022-09-02T01:23:29;13.90;99.90
21393;DHT22;10857;52.228;21.026;2022-09-02T01:26:01;13.90;99.90
21393;DHT22;10857;52.228;21.026;2022-09-02T01:28:28;13.90;99.90
21393;DHT22;10857;52.228;21.026;2022-09-02T01:30:55;13.90;99.90
21393;DHT22;10857;52.228;21.026;2022-09-02T01:33:23;13.80;99.90
21393;DHT22;10857;52.228;21.026;2022-09-02T01:35:52;13.80;99.90
21393;DHT22;10857;52.228;21.026;2022-09-02T01:38:20;13.80;99.90
21393;DHT22;10857;52.228;21.026;2022-09-02T01:40:47;13.70;99.90
21393;DHT22;10857;52.228;21.026;2022-09-02T01:43:18;13.80;99.90
21393;DHT22;10857;52.228;21.026;2022-09-02T01:45:49;13.80;99.90
21393;DHT22;10857;52.228;21.026;2022-09-02T01:48:17;13.80;99.90
21393;DHT22;10857;52.228;21.026;2022-09-02T01:50:52;13.80;99.90
21393;DHT22;10857;52.228;21.026;2022-09-02T01:53:19;13.90;99.90
21393;DHT22;10857;52.228;21.026;2022-09-02T01:55:47;13.90;99.90
21393;DHT22;10857;52.228;21.026;2022-09-02T01:58:13;13.80;99.90
21393;DHT22;10857;52.228;21.026;2022-09-02T02:00:40;13.80;99.90
21393;DHT22;10857;52.228;21.026;2022-09-02T02:03:07;13.80;99.90
21393;DHT22;10857;52.228;21.026;2022-09-02T02:05:35;13.80;99.90
21393;DHT22;10857;52.228;21.026;2022-09-02T02:08:06;13.80;99.90
21393;DHT22;10857;52.228;21.026;2022-09-02T02:10:33;13.80;99.90
21393;DHT22;10857;52.228;21.026;2022-09-02T02:13:01;13.70;99.90
21393;DHT22;10857;52.228;21.026;2022-09-02T02:15:31;13.70;99.90
21393;DHT22;10857;52.228;21.026;2022-09-02T02:17:57;13.80;99.90
21393;DHT22;10857;52.228;21.026;2022-09-02T02:20:24;13.70;99.90
21393;DHT22;10857;52.228;21.026;2022-09-02T02:22:52;13.70;99.90
21393;DHT22;10857;52.228;21.026;2022-09-02T02:25:19;13.60;99.90
21393;DHT22;10857;52.228;21.026;2022-09-02T02:27:49;13.50;99.90
21393;DHT22;10857;52.228;21.026;2022-09-02T02:30:19;13.50;99.90
21393;DHT22;10857;52.228;21.026;2022-09-02T02:32:47;13.50;99.90
21393;DHT22;10857;52.228;21.026;2022-09-02T02:35:17;13.40;99.90
21393;DHT22;10857;52.228;21.026;2022-09-02T02:37:47;13.50;99.90
21393;DHT22;10857;52.228;21.026;2022-09-02T02:40:18;13.40;99.90
21393;DHT22;10857;52.228;21.026;2022-09-02T02:42:48;13.50;99.90
21393;DHT22;10857;52.228;21.026;2022-09-02T02:45:15;13.50;99.90
21393;DHT22;10857;52.228;21.026;2022-09-02T02:47:43;13.40;99.90
21393;DHT22;10857;52.228;21.026;2022-09-02T02:50:15;13.40;99.90
21393;DHT22;10857;52.228;21.026;2022-09-02T02:52:45;13.40;99.90
21393;DHT22;10857;52.228;21.026;2022-09-02T02:55:13;13.30;99.90
21393;DHT22;10857;52.228;21.026;2022-09-02T02:57:41;13.30;99.90
21393;DHT22;10857;52.228;21.026;2022-09-02T03:00:16;13.30;99.90
21393;DHT22;10857;52.228;21.026;2022-09-02T03:02:46;13.30;99.90
21393;DHT22;10857;52.228;21.026;2022-09-02T03:05:14;13.40;99.90
21393;DHT22;10857;52.228;21.026;2022-09-02T03:07:41;13.30;99.90
21393;DHT22;10857;52.228;21.026;2022-09-02T03:10:11;13.30;99.90
21393;DHT22;10857;52.228;21.026;2022-09-02T03:12:40;13.30;99.90
21393;DHT22;10857;52.228;21.026;2022-09-02T03:15:08;13.30;99.90
21393;DHT22;10857;52.228;21.026;2022-09-02T03:17:38;13.20;99.90
21393;DHT22;10857;52.228;21.026;2022-09-02T03:20:05;13.20;99.90
21393;DHT22;10857;52.228;21.026;2022-09-02T03:22:37;13.30;99.90
21393;DHT22;10857;52.228;21.026;2022-09-02T03:25:08;13.10;99.90
21393;DHT22;10857;52.228;21.026;2022-09-02T03:27:38;13.00;99.90
21393;DHT22;10857;52.228;21.026;2022-09-02T03:30:07;13.10;99.90
21393;DHT22;10857;52.228;21.026;2022-09-02T03:32:35;13.00;99.90
21393;DHT22;10857;52.228;21.026;2022-09-02T03:35:05;13.00;99.90
21393;DHT22;10857;52.228;21.026;2022-09-02T03:37:35;13.00;99.90
21393;DHT22;10857;52.228;21.026;2022-09-02T03:40:08;12.90;99.90
21393;DHT22;10857;52.228;21.026;2022-09-02T03:42:36;12.80;99.90
21393;DHT22;10857;52.228;21.026;2022-09-02T03:45:07;12.80;99.90
21393;DHT22;10857;52.228;21.026;2022-09-02T03:47:35;12.90;99.90
21393;DHT22;10857;52.228;21.026;2022-09-02T03:50:03;12.90;99.90
21393;DHT22;10857;52.228;21.026;2022-09-02T03:52:30;12.90;99.90
21393;DHT22;10857;52.228;21.026;2022-09-02T03:54:57;12.80;99.90
21393;DHT22;10857;52.228;21.026;2022-09-02T03:57:25;12.90;99.90
21393;DHT22;10857;52.228;21.026;2022-09-02T03:59:53;12.90;99.90
21393;DHT22;10857;52.228;21.026;2022-09-02T04:02:20;12.90;99.90
21393;DHT22;10857;52.228;21.026;2022-09-02T04:04:47;12.90;99.90
21393;DHT22;10857;52.228;21.026;2022-09-02T04:07:14;12.90;99.90
21393;DHT22;10857;52.228;21.026;2022-09-02T04:09:42;12.90;99.90
21393;DHT22;10857;52.228;21.026;2022-09-02T04:12:12;12.80;99.90
21393;DHT22;10857;52.228;21.026;2022-09-02T04:14:39;12.80;99.90
21393;DHT22;10857;52.228;21.026;2022-09-02T04:17:08;12.80;99.90
21393;DHT22;10857;52.228;21.026;2022-09-02T04:19:35;12.80;99.90
21393;DHT22;10857;52.228;21.026;2022-09-02T04:22:03;12.70;99.90
21393;DHT22;10857;52.228;21.026;2022-09-02T04:24:31;12.80;99.90
21393;DHT22;10857;52.228;21.026;2022-09-02T04:26:58;12.70;99.90
21393;DHT22;10857;52.228;21.026;2022-09-02T04:29:32;12.80;99.90
21393;DHT22;10857;52.228;21.026;2022-09-02T04:31:59;12.80;99.90
21393;DHT22;10857;52.228;21.026;2022-09-02T04:34:26;12.80;99.90
21393;DHT22;10857;52.228;21.026;2022-09-02T04:36:54;12.90;99.90
21393;DHT22;10857;52.228;21.026;2022-09-02T04:39:22;12.90;99.90
21393;DHT22;10857;52.228;21.026;2022-09-02T04:41:50;12.80;99.90
21393;DHT22;10857;52.228;21.026;2022-09-02T04:44:20;12.80;99.90
21393;DHT22;10857;52.228;21.026;2022-09-02T04:46:47;12.90;99.90
21393;DHT22;10857;52.228;21.026;2022-09-02T04:49:18;12.90;99.90
21393;DHT22;10857;52.228;21.026;2022-09-02T04:51:49;13.10;99.90
21393;DHT22;10857;52.228;21.026;2022-09-02T04:54:16;13.00;99.90
21393;DHT22;10857;52.228;21.026;2022-09-02T04:56:46;13.10;99.90
21393;DHT22;10857;52.228;21.026;2022-09-02T04:59:14;13.10;99.90
21393;DHT22;10857;52.228;21.026;2022-09-02T05:01:49;13.20;99.90
21393;DHT22;10857;52.228;21.026;2022-09-02T05:04:21;13.20;99.90
21393;DHT22;10857;52.228;21.026;2022-09-02T05:06:50;13.20;99.90
21393;DHT22;10857;52.228;21.026;2022-09-02T05:09:18;13.20;99.90
21393;DHT22;10857;52.228;21.026;2022-09-02T05:11:50;13.20;99.90
21393;DHT22;10857;52.228;21.026;2022-09-02T05:14:22;13.30;99.90
21393;DHT22;10857;52.228;21.026;2022-09-02T05:16:50;13.30;99.90
21393;DHT22;10857;52.228;21.026;2022-09-02T05:19:22;13.30;99.90
21393;DHT22;10857;52.228;21.026;2022-09-02T05:21:51;13.30;99.90
21393;DHT22;10857;52.228;21.026;2022-09-02T05:24:28;13.40;99.90
21393;DHT22;10857;52.228;21.026;2022-09-02T05:26:58;13.40;99.90
21393;DHT22;10857;52.228;21.026;2022-09-02T05:29:27;13.40;99.90
21393;DHT22;10857;52.228;21.026;2022-09-02T05:31:55;13.50;99.90
21393;DHT22;10857;52.228;21.026;2022-09-02T05:34:24;13.50;99.90
21393;DHT22;10857;52.228;21.026;2022-09-02T05:36:54;13.50;99.90
21393;DHT22;10857;52.228;21.026;2022-09-02T05:39:24;13.60;99.90
21393;DHT22;10857;52.228;21.026;2022-09-02T05:41:52;13.60;99.90
21393;DHT22;10857;52.228;21.026;2022-09-02T05:44:19;13.70;99.90
21393;DHT22;10857;52.228;21.026;2022-09-02T05:46:48;13.70;99.90
21393;DHT22;10857;52.228;21.026;2022-09-02T05:49:16;13.80;99.90
21393;DHT22;10857;52.228;21.026;2022-09-02T05:51:50;13.80;99.90
21393;DHT22;10857;52.228;21.026;2022-09-02T05:54:28;13.80;99.90
21393;DHT22;10857;52.228;21.026;2022-09-02T05:57:02;13.90;99.90
21393;DHT22;10857;52.228;21.026;2022-09-02T05:59:31;13.90;99.90
21393;DHT22;10857;52.228;21.026;2022-09-02T06:02:02;14.10;99.90
21393;DHT22;10857;52.228;21.026;2022-09-02T06:04:29;14.10;99.90
21393;DHT22;10857;52.228;21.026;2022-09-02T06:06:58;14.10;99.90
21393;DHT22;10857;52.228;21.026;2022-09-02T06:09:25;14.10;99.90
21393;DHT22;10857;52.228;21.026;2022-09-02T06:11:53;14.10;99.90
21393;DHT22;10857;52.228;21.026;2022-09-02T06:14:25;14.10;99.90
21393;DHT22;10857;52.228;21.026;2022-09-02T06:16:56;14.20;99.90
21393;DHT22;10857;52.228;21.026;2022-09-02T06:19:30;14.20;99.90
21393;DHT22;10857;52.228;21.026;2022-09-02T06:22:02;14.30;99.90
21393;DHT22;10857;52.228;21.026;2022-09-02T06:24:32;14.50;99.90
21393;DHT22;10857;52.228;21.026;2022-09-02T06:27:05;14.50;99.90
21393;DHT22;10857;52.228;21.026;2022-09-02T06:29:36;14.70;99.90
21393;DHT22;10857;52.228;21.026;2022-09-02T06:32:05;14.70;99.90
21393;DHT22;10857;52.228;21.026;2022-09-02T06:34:33;14.70;99.90
21393;DHT22;10857;52.228;21.026;2022-09-02T06:37:01;14.70;99.90
21393;DHT22;10857;52.228;21.026;2022-09-02T06:39:30;14.70;99.90
21393;DHT22;10857;52.228;21.026;2022-09-02T06:41:58;14.80;99.90
21393;DHT22;10857;52.228;21.026;2022-09-02T06:44:28;14.80;99.90
21393;DHT22;10857;52.228;21.026;2022-09-02T06:46:58;14.90;99.90
21393;DHT22;10857;52.228;21.026;2022-09-02T06:49:26;15.00;99.90
21393;DHT22;10857;52.228;21.026;2022-09-02T06:51:57;15.10;99.90
21393;DHT22;10857;52.228;21.026;2022-09-02T06:54:30;15.20;99.90
21393;DHT22;10857;52.228;21.026;2022-09-02T06:57:06;15.30;99.90
21393;DHT22;10857;52.228;21.026;2022-09-02T06:59:35;15.40;99.90
21393;DHT22;10857;52.228;21.026;2022-09-02T07:02:03;15.40;99.90
21393;DHT22;10857;52.228;21.026;2022-09-02T07:04:31;15.40;99.90
21393;DHT22;10857;52.228;21.026;2022-09-02T07:07:21;15.50;99.90
21393;DHT22;10857;52.228;21.026;2022-09-02T07:10:12;15.60;99.90
21393;DHT22;10857;52.228;21.026;2022-09-02T07:12:44;15.60;99.90
21393;DHT22;10857;52.228;21.026;2022-09-02T07:15:14;15.60;99.90
21393;DHT22;10857;52.228;21.026;2022-09-02T07:17:42;15.60;99.90
21393;DHT22;10857;52.228;21.026;2022-09-02T07:20:15;15.60;99.90
21393;DHT22;10857;52.228;21.026;2022-09-02T07:23:01;15.80;99.90
21393;DHT22;10857;52.228;21.026;2022-09-02T07:25:31;15.80;99.90
21393;DHT22;10857;52.228;21.026;2022-09-02T07:27:58;15.90;99.90
21393;DHT22;10857;52.228;21.026;2022-09-02T07:30:28;16.00;99.90
21393;DHT22;10857;52.228;21.026;2022-09-02T07:33:04;15.80;99.90
21393;DHT22;10857;52.228;21.026;2022-09-02T07:35:32;15.80;99.90
21393;DHT22;10857;52.228;21.026;2022-09-02T07:38:00;15.60;99.90
21393;DHT22;10857;52.228;21.026;2022-09-02T07:40:27;15.70;99.90
21393;DHT22;10857;52.228;21.026;2022-09-02T07:42:55;15.90;99.90
21393;DHT22;10857;52.228;21.026;2022-09-02T07:45:22;16.00;99.90
21393;DHT22;10857;52.228;21.026;2022-09-02T07:47:49;16.20;99.90
21393;DHT22;10857;52.228;21.026;2022-09-02T07:50:19;16.40;99.90
21393;DHT22;10857;52.228;21.026;2022-09-02T07:52:56;16.50;99.90
21393;DHT22;10857;52.228;21.026;2022-09-02T07:55:26;16.50;99.90
21393;DHT22;10857;52.228;21.026;2022-09-02T07:57:57;16.50;99.90
21393;DHT22;10857;52.228;21.026;2022-09-02T08:00:24;16.70;99.90
21393;DHT22;10857;52.228;21.026;2022-09-02T08:02:56;16.80;99.90
21393;DHT22;10857;52.228;21.026;2022-09-02T08:05:30;16.80;99.90
21393;DHT22;10857;52.228;21.026;2022-09-02T08:07:58;16.70;99.90
21393;DHT22;10857;52.228;21.026;2022-09-02T08:10:27;16.80;99.90
21393;DHT22;10857;52.228;21.026;2022-09-02T08:12:56;16.90;99.90
21393;DHT22;10857;52.228;21.026;2022-09-02T08:15:23;16.90;99.90
21393;DHT22;10857;52.228;21.026;2022-09-02T08:17:55;16.90;99.90
21393;DHT22;10857;52.228;21.026;2022-09-02T08:20:22;17.00;99.90
21393;DHT22;10857;52.228;21.026;2022-09-02T08:22:50;17.10;99.90
21393;DHT22;10857;52.228;21.026;2022-09-02T08:25:38;17.00;99.90
21393;DHT22;10857;52.228;21.026;2022-09-02T08:28:05;17.10;99.90
21393;DHT22;10857;52.228;21.026;2022-09-02T08:30:32;17.30;99.90
21393;DHT22;10857;52.228;21.026;2022-09-02T08:32:59;17.50;99.90
21393;DHT22;10857;52.228;21.026;2022-09-02T08:35:26;17.50;99.90
21393;DHT22;10857;52.228;21.026;2022-09-02T08:37:53;17.50;99.90
21393;DHT22;10857;52.228;21.026;2022-09-02T08:40:22;17.50;99.90
21393;DHT22;10857;52.228;21.026;2022-09-02T08:42:52;17.40;99.90
21393;DHT22;10857;52.228;21.026;2022-09-02T08:45:36;17.00;99.90
21393;DHT22;10857;52.228;21.026;2022-09-02T08:48:15;16.90;99.90
21393;DHT22;10857;52.228;21.026;2022-09-02T08:50:49;17.20;99.90
21393;DHT22;10857;52.228;21.026;2022-09-02T08:53:34;17.40;99.90
21393;DHT22;10857;52.228;21.026;2022-09-02T08:56:04;17.60;99.90
21393;DHT22;10857;52.228;21.026;2022-09-02T08:58:38;17.70;99.90
21393;DHT22;10857;52.228;21.026;2022-09-02T09:01:12;17.80;99.90
21393;DHT22;10857;52.228;21.026;2022-09-02T09:09:02;17.70;99.90
21393;DHT22;10857;52.228;21.026;2022-09-02T09:14:33;17.90;99.90
21393;DHT22;10857;52.228;21.026;2022-09-02T09:19:55;18.20;99.90
21393;DHT22;10857;52.228;21.026;2022-09-02T09:22:32;18.30;99.90
21393;DHT22;10857;52.228;21.026;2022-09-02T09:25:09;18.10;99.90
21393;DHT22;10857;52.228;21.026;2022-09-02T09:27:38;18.20;99.90
21393;DHT22;10857;52.228;21.026;2022-09-02T09:30:08;18.30;99.90
21393;DHT22;10857;52.228;21.026;2022-09-02T09:32:48;18.50;99.90
21393;DHT22;10857;52.228;21.026;2022-09-02T09:35:18;18.60;99.90
21393;DHT22;10857;52.228;21.026;2022-09-02T09:37:49;18.60;99.90
21393;DHT22;10857;52.228;21.026;2022-09-02T09:40:21;18.00;99.90
21393;DHT22;10857;52.228;21.026;2022-09-02T09:45:47;18.20;99.90
21393;DHT22;10857;52.228;21.026;2022-09-02T09:50:46;18.70;99.90
21393;DHT22;10857;52.228;21.026;2022-09-02T09:53:24;18.70;99.90
21393;DHT22;10857;52.228;21.026;2022-09-02T09:58:42;18.60;99.90
21393;DHT22;10857;52.228;21.026;2022-09-02T10:01:17;18.60;99.90
21393;DHT22;10857;52.228;21.026;2022-09-02T10:03:51;18.60;99.90
21393;DHT22;10857;52.228;21.026;2022-09-02T10:06:24;18.90;99.90
21393;DHT22;10857;52.228;21.026;2022-09-02T10:11:34;19.20;99.90
21393;DHT22;10857;52.228;21.026;2022-09-02T10:14:08;19.30;98.40
21393;DHT22;10857;52.228;21.026;2022-09-02T10:16:47;19.30;98.40
21393;DHT22;10857;52.228;21.026;2022-09-02T10:31:30;18.80;96.60
21393;DHT22;10857;52.228;21.026;2022-09-02T10:39:33;18.80;98.00
21393;DHT22;10857;52.228;21.026;2022-09-02T10:42:27;19.00;98.20
21393;DHT22;10857;52.228;21.026;2022-09-02T10:48:39;19.40;96.90
21393;DHT22;10857;52.228;21.026;2022-09-02T10:53:55;19.10;94.60
21393;DHT22;10857;52.228;21.026;2022-09-02T10:56:37;18.80;94.90
21393;DHT22;10857;52.228;21.026;2022-09-02T10:59:14;18.50;94.90
21393;DHT22;10857;52.228;21.026;2022-09-02T11:01:56;18.70;96.30
21393;DHT22;10857;52.228;21.026;2022-09-02T11:06:59;19.10;95.00
21393;DHT22;10857;52.228;21.026;2022-09-02T11:09:44;19.30;95.90
21393;DHT22;10857;52.228;21.026;2022-09-02T11:12:16;19.60;96.40
21393;DHT22;10857;52.228;21.026;2022-09-02T11:20:43;20.00;93.80
21393;DHT22;10857;52.228;21.026;2022-09-02T11:23:45;20.10;93.70
21393;DHT22;10857;52.228;21.026;2022-09-02T11:26:20;20.10;93.60
21393;DHT22;10857;52.228;21.026;2022-09-02T11:29:10;20.20;92.90
21393;DHT22;10857;52.228;21.026;2022-09-02T11:31:43;20.20;92.30
21393;DHT22;10857;52.228;21.026;2022-09-02T11:34:37;20.30;92.50
21393;DHT22;10857;52.228;21.026;2022-09-02T11:37:11;20.50;93.40
21393;DHT22;10857;52.228;21.026;2022-09-02T11:40:16;20.60;93.30
21393;DHT22;10857;52.228;21.026;2022-09-02T11:54:34;20.40;91.10
21393;DHT22;10857;52.228;21.026;2022-09-02T11:57:04;20.30;90.70
21393;DHT22;10857;52.228;21.026;2022-09-02T12:02:45;20.50;91.60
21393;DHT22;10857;52.228;21.026;2022-09-02T12:07:58;20.10;90.40
21393;DHT22;10857;52.228;21.026;2022-09-02T12:13:43;20.00;90.80
21393;DHT22;10857;52.228;21.026;2022-09-02T12:25:01;20.60;92.10
21393;DHT22;10857;52.228;21.026;2022-09-02T12:27:35;20.80;92.20
21393;DHT22;10857;52.228;21.026;2022-09-02T12:30:07;20.80;90.00
21393;DHT22;10857;52.228;21.026;2022-09-02T12:35:54;20.80;88.70
21393;DHT22;10857;52.228;21.026;2022-09-02T12:38:29;20.70;86.80
21393;DHT22;10857;52.228;21.026;2022-09-02T12:41:10;20.70;86.90
21393;DHT22;10857;52.228;21.026;2022-09-02T12:48:49;20.60;86.00
21393;DHT22;10857;52.228;21.026;2022-09-02T12:54:26;20.90;86.90
21393;DHT22;10857;52.228;21.026;2022-09-02T12:56:57;20.80;87.30
21393;DHT22;10857;52.228;21.026;2022-09-02T12:59:29;20.90;86.30
21393;DHT22;10857;52.228;21.026;2022-09-02T13:02:05;20.90;85.50
21393;DHT22;10857;52.228;21.026;2022-09-02T13:11:18;20.90;88.20
21393;DHT22;10857;52.228;21.026;2022-09-02T13:26:02;20.90;86.60
21393;DHT22;10857;52.228;21.026;2022-09-02T13:31:21;20.90;84.80
21393;DHT22;10857;52.228;21.026;2022-09-02T13:34:05;20.80;85.00
21393;DHT22;10857;52.228;21.026;2022-09-02T13:36:36;20.80;86.20
21393;DHT22;10857;52.228;21.026;2022-09-02T13:39:29;20.80;85.40
21393;DHT22;10857;52.228;21.026;2022-09-02T13:41:56;20.60;84.90
21393;DHT22;10857;52.228;21.026;2022-09-02T13:44:27;20.70;86.50
21393;DHT22;10857;52.228;21.026;2022-09-02T13:47:15;20.60;86.50
21393;DHT22;10857;52.228;21.026;2022-09-02T13:49:46;20.60;86.70
21393;DHT22;10857;52.228;21.026;2022-09-02T13:52:21;20.60;86.40
21393;DHT22;10857;52.228;21.026;2022-09-02T13:55:12;20.50;86.80
21393;DHT22;10857;52.228;21.026;2022-09-02T13:57:43;20.60;87.40
21393;DHT22;10857;52.228;21.026;2022-09-02T14:00:32;20.80;87.20
21393;DHT22;10857;52.228;21.026;2022-09-02T14:05:33;20.80;85.50
21393;DHT22;10857;52.228;21.026;2022-09-02T14:08:04;20.90;86.80
21393;DHT22;10857;52.228;21.026;2022-09-02T14:10:34;20.80;86.70
21393;DHT22;10857;52.228;21.026;2022-09-02T14:13:03;20.60;85.90
21393;DHT22;10857;52.228;21.026;2022-09-02T14:15:32;20.30;86.50
21393;DHT22;10857;52.228;21.026;2022-09-02T14:18:14;20.00;87.50
21393;DHT22;10857;52.228;21.026;2022-09-02T14:20:59;20.10;88.70
21393;DHT22;10857;52.228;21.026;2022-09-02T14:23:29;20.00;89.80
21393;DHT22;10857;52.228;21.026;2022-09-02T14:26:00;20.00;90.00
21393;DHT22;10857;52.228;21.026;2022-09-02T14:28:30;20.20;90.70
21393;DHT22;10857;52.228;21.026;2022-09-02T14:31:04;20.30;90.20
21393;DHT22;10857;52.228;21.026;2022-09-02T14:33:44;20.30;89.90
21393;DHT22;10857;52.228;21.026;2022-09-02T14:41:22;20.60;90.50
21393;DHT22;10857;52.228;21.026;2022-09-02T14:43:59;20.60;90.80
21393;DHT22;10857;52.228;21.026;2022-09-02T14:46:45;20.80;90.40
21393;DHT22;10857;52.228;21.026;2022-09-02T14:49:19;20.80;90.80
21393;DHT22;10857;52.228;21.026;2022-09-02T14:51:50;21.00;90.80
21393;DHT22;10857;52.228;21.026;2022-09-02T14:54:43;21.00;90.60
21393;DHT22;10857;52.228;21.026;2022-09-02T14:59:48;20.90;89.80
21393;DHT22;10857;52.228;21.026;2022-09-02T15:02:29;20.90;89.80
21393;DHT22;10857;52.228;21.026;2022-09-02T15:05:02;20.70;89.30
21393;DHT22;10857;52.228;21.026;2022-09-02T15:07:29;20.60;90.20
21393;DHT22;10857;52.228;21.026;2022-09-02T15:09:56;20.50;90.10
21393;DHT22;10857;52.228;21.026;2022-09-02T15:12:27;20.40;90.10
21393;DHT22;10857;52.228;21.026;2022-09-02T15:14:56;20.30;90.50
21393;DHT22;10857;52.228;21.026;2022-09-02T15:17:24;20.20;90.70
21393;DHT22;10857;52.228;21.026;2022-09-02T15:19:51;20.10;91.00
21393;DHT22;10857;52.228;21.026;2022-09-02T15:22:18;20.00;91.40
21393;DHT22;10857;52.228;21.026;2022-09-02T15:24:48;20.00;91.20
21393;DHT22;10857;52.228;21.026;2022-09-02T15:27:16;20.00;91.60
21393;DHT22;10857;52.228;21.026;2022-09-02T15:29:48;19.90;91.80
21393;DHT22;10857;52.228;21.026;2022-09-02T15:32:15;19.80;91.20
21393;DHT22;10857;52.228;21.026;2022-09-02T15:34:42;19.80;92.00
21393;DHT22;10857;52.228;21.026;2022-09-02T15:37:09;19.80;91.70
21393;DHT22;10857;52.228;21.026;2022-09-02T15:39:39;19.80;91.60
21393;DHT22;10857;52.228;21.026;2022-09-02T15:42:06;19.80;91.90
21393;DHT22;10857;52.228;21.026;2022-09-02T15:44:33;19.80;92.10
21393;DHT22;10857;52.228;21.026;2022-09-02T15:47:00;19.90;92.40
21393;DHT22;10857;52.228;21.026;2022-09-02T15:49:27;19.90;92.00
21393;DHT22;10857;52.228;21.026;2022-09-02T15:51:54;19.80;92.00
21393;DHT22;10857;52.228;21.026;2022-09-02T15:54:22;19.80;92.60
21393;DHT22;10857;52.228;21.026;2022-09-02T15:56:54;19.70;92.60
21393;DHT22;10857;52.228;21.026;2022-09-02T15:59:23;19.80;92.40
21393;DHT22;10857;52.228;21.026;2022-09-02T16:01:52;19.80;92.10
21393;DHT22;10857;52.228;21.026;2022-09-02T16:04:25;19.80;92.30
21393;DHT22;10857;52.228;21.026;2022-09-02T16:06:53;19.70;92.10
21393;DHT22;10857;52.228;21.026;2022-09-02T16:09:20;19.70;92.70
21393;DHT22;10857;52.228;21.026;2022-09-02T16:11:52;19.70;92.40
21393;DHT22;10857;52.228;21.026;2022-09-02T16:14:20;19.70;92.40
21393;DHT22;10857;52.228;21.026;2022-09-02T16:16:48;19.70;92.70
21393;DHT22;10857;52.228;21.026;2022-09-02T16:19:20;19.70;92.30
21393;DHT22;10857;52.228;21.026;2022-09-02T16:21:50;19.70;92.30
21393;DHT22;10857;52.228;21.026;2022-09-02T16:24:18;19.80;91.90
21393;DHT22;10857;52.228;21.026;2022-09-02T16:26:49;20.00;91.70
21393;DHT22;10857;52.228;21.026;2022-09-02T16:29:17;20.10;91.50
21393;DHT22;10857;52.228;21.026;2022-09-02T16:31:46;20.30;91.00
21393;DHT22;10857;52.228;21.026;2022-09-02T16:34:34;20.50;90.50
21393;DHT22;10857;52.228;21.026;2022-09-02T16:37:01;20.50;90.00
21393;DHT22;10857;52.228;21.026;2022-09-02T16:39:28;20.40;89.60
21393;DHT22;10857;52.228;21.026;2022-09-02T16:41:56;20.30;90.10
21393;DHT22;10857;52.228;21.026;2022-09-02T16:44:24;20.20;90.20
21393;DHT22;10857;52.228;21.026;2022-09-02T16:46:52;20.20;90.40
21393;DHT22;10857;52.228;21.026;2022-09-02T16:49:20;20.10;90.30
21393;DHT22;10857;52.228;21.026;2022-09-02T16:51:49;20.10;90.40
21393;DHT22;10857;52.228;21.026;2022-09-02T16:54:25;20.00;90.60
21393;DHT22;10857;52.228;21.026;2022-09-02T16:56:59;20.00;90.60
21393;DHT22;10857;52.228;21.026;2022-09-02T16:59:26;19.80;91.10
21393;DHT22;10857;52.228;21.026;2022-09-02T17:01:53;19.70;91.50
21393;DHT22;10857;52.228;21.026;2022-09-02T17:04:21;19.70;92.00
21393;DHT22;10857;52.228;21.026;2022-09-02T17:06:48;19.60;92.10
21393;DHT22;10857;52.228;21.026;2022-09-02T17:09:15;19.50;92.30
21393;DHT22;10857;52.228;21.026;2022-09-02T17:11:42;19.40;92.40
21393;DHT22;10857;52.228;21.026;2022-09-02T17:14:16;19.40;92.70
21393;DHT22;10857;52.228;21.026;2022-09-02T17:16:45;19.40;93.10
21393;DHT22;10857;52.228;21.026;2022-09-02T17:19:13;19.30;93.20
21393;DHT22;10857;52.228;21.026;2022-09-02T17:21:51;19.30;93.20
21393;DHT22;10857;52.228;21.026;2022-09-02T17:24:21;19.30;93.30
21393;DHT22;10857;52.228;21.026;2022-09-02T17:26:49;19.30;93.50
21393;DHT22;10857;52.228;21.026;2022-09-02T17:29:18;19.10;93.70
21393;DHT22;10857;52.228;21.026;2022-09-02T17:32:06;19.10;93.90
21393;DHT22;10857;52.228;21.026;2022-09-02T17:34:33;19.10;94.00
21393;DHT22;10857;52.228;21.026;2022-09-02T17:37:00;19.00;94.00
21393;DHT22;10857;52.228;21.026;2022-09-02T17:39:26;19.00;94.30
21393;DHT22;10857;52.228;21.026;2022-09-02T17:42:03;19.00;94.40
21393;DHT22;10857;52.228;21.026;2022-09-02T17:44:34;19.00;94.70
21393;DHT22;10857;52.228;21.026;2022-09-02T17:47:04;18.90;94.70